createdAt,value
2019-01-09T00:00:24.063Z,0.00
2019-01-09T00:01:30.111Z,0.00
2019-01-09T00:02:36.169Z,0.00
2019-01-09T00:03:42.721Z,0.00
2019-01-09T00:04:48.302Z,0.00
2019-01-09T00:05:54.874Z,0.00
2019-01-09T00:07:00.912Z,0.00
2019-01-09T00:08:06.985Z,0.00
2019-01-09T00:09:12.536Z,0.00
2019-01-09T00:10:19.090Z,0.00
2019-01-09T00:11:24.649Z,0.00
2019-01-09T00:12:30.720Z,0.00
2019-01-09T00:13:37.270Z,0.00
2019-01-09T00:14:43.322Z,0.00
2019-01-09T00:15:49.404Z,0.00
2019-01-09T00:16:55.467Z,0.00
2019-01-09T00:18:01.012Z,0.00
2019-01-09T00:19:07.071Z,0.00
2019-01-09T00:20:13.127Z,0.00
2019-01-09T00:21:19.680Z,0.00
2019-01-09T00:22:25.251Z,0.00
2019-01-09T00:23:31.315Z,0.00
2019-01-09T00:24:37.564Z,0.00
2019-01-09T00:25:43.441Z,0.00
2019-01-09T00:26:50.003Z,0.00
2019-01-09T00:27:56.065Z,0.00
2019-01-09T00:29:01.600Z,0.00
2019-01-09T00:30:07.652Z,0.00
2019-01-09T00:31:13.731Z,0.00
2019-01-09T00:32:19.784Z,0.00
2019-01-09T00:33:26.330Z,0.00
2019-01-09T00:34:32.391Z,0.00
2019-01-09T00:35:37.949Z,0.00
2019-01-09T00:36:44.612Z,0.00
2019-01-09T00:37:50.066Z,0.00
2019-01-09T00:38:56.133Z,0.00
2019-01-09T00:40:02.201Z,0.00
2019-01-09T00:41:08.728Z,0.00
2019-01-09T00:42:15.294Z,0.00
2019-01-09T00:43:20.346Z,0.00
2019-01-09T00:44:26.405Z,0.00
2019-01-09T00:45:32.984Z,0.00
2019-01-09T00:46:38.597Z,0.00
2019-01-09T00:47:44.566Z,0.00
2019-01-09T00:48:50.613Z,0.00
2019-01-09T00:49:56.680Z,0.00
2019-01-09T00:51:02.737Z,0.00
2019-01-09T00:52:08.801Z,0.00
2019-01-09T00:53:14.865Z,0.00
2019-01-09T00:54:21.394Z,0.00
2019-01-09T00:55:26.949Z,0.00
2019-01-09T00:56:33.010Z,0.00
2019-01-09T00:57:39.063Z,0.00
2019-01-09T00:58:45.109Z,0.00
2019-01-09T00:59:51.167Z,0.00
2019-01-09T01:00:58.220Z,0.00
2019-01-09T01:02:03.272Z,0.00
2019-01-09T01:03:09.321Z,0.00
2019-01-09T01:04:16.363Z,0.00
2019-01-09T01:05:21.418Z,0.00
2019-01-09T01:06:27.487Z,0.00
2019-01-09T01:07:33.525Z,0.00
2019-01-09T01:08:39.580Z,0.00
2019-01-09T01:09:45.634Z,0.00
2019-01-09T01:10:51.689Z,0.00
2019-01-09T01:11:57.739Z,0.00
2019-01-09T01:13:03.789Z,0.00
2019-01-09T01:14:09.840Z,0.00
2019-01-09T01:15:15.895Z,0.00
2019-01-09T01:16:21.960Z,0.00
2019-01-09T01:17:28.016Z,0.00
2019-01-09T01:18:34.059Z,0.00
2019-01-09T01:19:40.115Z,0.00
2019-01-09T01:20:46.162Z,0.00
2019-01-09T01:21:52.226Z,0.00
2019-01-09T01:22:58.272Z,0.00
2019-01-09T01:24:04.323Z,0.00
2019-01-09T01:25:10.373Z,0.00
2019-01-09T01:26:16.425Z,0.00
2019-01-09T01:27:22.480Z,0.00
2019-01-09T01:28:28.533Z,0.00
2019-01-09T01:29:35.033Z,0.00
2019-01-09T01:30:40.621Z,0.00
2019-01-09T01:31:47.265Z,0.00
2019-01-09T01:32:52.726Z,0.00
2019-01-09T01:33:58.770Z,0.00
2019-01-09T01:35:05.323Z,0.00
2019-01-09T01:36:10.895Z,0.00
2019-01-09T01:37:16.930Z,0.00
2019-01-09T01:38:23.004Z,0.00
2019-01-09T01:39:30.033Z,0.00
2019-01-09T01:40:35.579Z,0.00
2019-01-09T01:41:41.643Z,0.00
2019-01-09T01:42:47.191Z,0.00
2019-01-09T01:43:53.245Z,0.00
2019-01-09T01:44:59.789Z,0.00
2019-01-09T01:46:05.376Z,0.00
2019-01-09T01:47:11.406Z,0.00
2019-01-09T01:48:17.450Z,0.00
2019-01-09T01:49:23.505Z,0.00
2019-01-09T01:50:29.569Z,0.00
2019-01-09T01:51:35.610Z,0.00
2019-01-09T01:52:41.676Z,0.00
2019-01-09T01:53:47.730Z,0.00
2019-01-09T01:54:53.781Z,0.00
2019-01-09T01:55:59.824Z,0.00
2019-01-09T01:57:05.890Z,0.00
2019-01-09T01:58:11.941Z,0.00
2019-01-09T01:59:17.996Z,0.00
2019-01-09T02:00:24.054Z,0.00
2019-01-09T02:01:30.108Z,0.00
2019-01-09T02:02:37.160Z,0.00
2019-01-09T02:03:42.217Z,0.00
2019-01-09T02:04:48.273Z,0.00
2019-01-09T02:05:54.346Z,0.00
2019-01-09T02:07:00.877Z,0.00
2019-01-09T02:08:06.434Z,0.00
2019-01-09T02:09:12.497Z,0.00
2019-01-09T02:10:18.539Z,0.00
2019-01-09T02:11:25.587Z,0.00
2019-01-09T02:12:30.637Z,0.00
2019-01-09T02:13:36.689Z,0.00
2019-01-09T02:14:43.220Z,0.00
2019-01-09T02:15:48.788Z,0.00
2019-01-09T02:16:54.824Z,0.00
2019-01-09T02:18:00.859Z,0.00
2019-01-09T02:19:06.914Z,0.00
2019-01-09T02:20:12.936Z,0.00
2019-01-09T02:21:19.305Z,0.00
2019-01-09T02:22:25.504Z,0.00
2019-01-09T02:23:31.051Z,0.00
2019-01-09T02:24:37.582Z,0.00
2019-01-09T02:25:43.599Z,0.00
2019-01-09T02:26:49.132Z,0.00
2019-01-09T02:27:55.165Z,0.00
2019-01-09T02:29:01.685Z,0.00
2019-01-09T02:30:07.719Z,0.00
2019-01-09T02:31:13.743Z,0.00
2019-01-09T02:32:19.768Z,0.00
2019-01-09T02:33:25.805Z,0.00
2019-01-09T02:34:31.834Z,0.00
2019-01-09T02:35:37.850Z,0.00
2019-01-09T02:36:43.902Z,0.00
2019-01-09T02:37:49.905Z,0.00
2019-01-09T02:38:55.940Z,0.00
2019-01-09T02:40:01.978Z,0.00
2019-01-09T02:41:07.989Z,0.00
2019-01-09T02:42:14.015Z,0.00
2019-01-09T02:43:19.550Z,0.00
2019-01-09T02:44:32.168Z,0.00
2019-01-09T02:45:32.086Z,0.00
2019-01-09T02:46:37.636Z,0.00
2019-01-09T02:47:44.137Z,0.00
2019-01-09T02:48:50.154Z,0.00
2019-01-09T02:49:56.176Z,0.00
2019-01-09T02:51:02.208Z,0.00
2019-01-09T02:52:08.292Z,0.00
2019-01-09T02:53:14.273Z,0.00
2019-01-09T02:54:20.308Z,0.00
2019-01-09T02:55:26.316Z,0.00
2019-01-09T02:56:32.651Z,0.00
2019-01-09T02:57:37.907Z,0.00
2019-01-09T02:58:43.908Z,0.00
2019-01-09T02:59:49.922Z,0.00
2019-01-09T03:00:55.957Z,0.00
2019-01-09T03:03:08.009Z,0.00
2019-01-09T03:04:14.073Z,0.00
2019-01-09T03:05:20.603Z,0.00
2019-01-09T03:06:26.087Z,0.00
2019-01-09T03:07:32.127Z,0.00
2019-01-09T03:08:38.181Z,0.00
2019-01-09T03:09:44.178Z,0.00
2019-01-09T03:10:50.202Z,0.00
2019-01-09T03:11:56.225Z,0.00
2019-01-09T03:13:03.743Z,0.00
2019-01-09T03:14:08.795Z,0.00
2019-01-09T03:15:14.796Z,0.00
2019-01-09T03:16:20.334Z,0.00
2019-01-09T03:17:26.365Z,0.00
2019-01-09T03:18:32.396Z,0.00
2019-01-09T03:19:38.419Z,0.00
2019-01-09T03:20:44.946Z,0.00
2019-01-09T03:21:50.968Z,0.00
2019-01-09T03:22:56.500Z,0.00
2019-01-09T03:24:02.532Z,0.00
2019-01-09T03:25:09.036Z,0.00
2019-01-09T03:26:14.572Z,0.00
2019-01-09T03:27:20.606Z,0.00
2019-01-09T03:28:27.133Z,0.00
2019-01-09T03:29:32.661Z,0.00
2019-01-09T03:30:39.193Z,0.00
2019-01-09T03:31:44.720Z,0.00
2019-01-09T03:32:50.746Z,0.00
2019-01-09T03:33:56.774Z,0.00
2019-01-09T03:35:02.811Z,0.00
2019-01-09T03:36:09.347Z,0.00
2019-01-09T03:37:15.363Z,0.00
2019-01-09T03:38:20.900Z,0.00
2019-01-09T03:39:26.932Z,0.00
2019-01-09T03:40:32.968Z,0.00
2019-01-09T03:41:38.988Z,0.00
2019-01-09T03:42:45.029Z,0.00
2019-01-09T03:43:51.057Z,0.00
2019-01-09T03:44:57.578Z,0.00
2019-01-09T03:46:03.110Z,0.00
2019-01-09T03:47:09.146Z,0.00
2019-01-09T03:48:15.660Z,0.00
2019-01-09T03:49:21.206Z,0.00
2019-01-09T03:50:27.238Z,0.00
2019-01-09T03:51:33.264Z,0.00
2019-01-09T03:52:39.306Z,0.00
2019-01-09T03:53:45.321Z,0.00
2019-01-09T03:54:51.351Z,0.00
2019-01-09T03:55:57.884Z,0.00
2019-01-09T03:57:03.413Z,0.00
2019-01-09T03:58:09.438Z,0.00
2019-01-09T03:59:15.469Z,0.00
2019-01-09T04:00:21.514Z,0.00
2019-01-09T04:01:27.532Z,0.00
2019-01-09T04:02:33.581Z,0.00
2019-01-09T04:03:39.617Z,0.00
2019-01-09T04:05:51.680Z,0.00
2019-01-09T04:06:57.706Z,0.00
2019-01-09T04:08:03.955Z,0.00
2019-01-09T04:09:09.763Z,0.00
2019-01-09T04:10:15.813Z,0.00
2019-01-09T04:11:21.856Z,0.00
2019-01-09T04:12:27.874Z,0.00
2019-01-09T04:13:33.900Z,0.00
2019-01-09T04:14:39.942Z,0.00
2019-01-09T04:15:45.968Z,0.00
2019-01-09T04:16:52.008Z,0.00
2019-01-09T04:17:58.044Z,0.00
2019-01-09T04:19:04.056Z,0.00
2019-01-09T04:20:10.089Z,0.00
2019-01-09T04:21:16.138Z,0.00
2019-01-09T04:22:22.147Z,0.00
2019-01-09T04:23:28.190Z,0.00
2019-01-09T04:24:34.235Z,0.00
2019-01-09T04:25:40.261Z,0.00
2019-01-09T04:26:46.486Z,0.00
2019-01-09T04:27:52.331Z,0.00
2019-01-09T04:28:58.357Z,0.00
2019-01-09T04:30:04.384Z,0.00
2019-01-09T04:31:10.427Z,0.00
2019-01-09T04:32:16.472Z,0.00
2019-01-09T04:33:23.004Z,0.00
2019-01-09T04:34:29.538Z,0.00
2019-01-09T04:35:34.582Z,0.00
2019-01-09T04:36:40.609Z,0.00
2019-01-09T04:37:46.656Z,0.00
2019-01-09T04:38:52.711Z,0.00
2019-01-09T04:39:58.720Z,0.00
2019-01-09T04:41:04.761Z,0.00
2019-01-09T04:42:10.798Z,0.00
2019-01-09T04:43:16.846Z,0.00
2019-01-09T04:44:23.872Z,0.00
2019-01-09T04:45:28.942Z,0.00
2019-01-09T04:46:34.966Z,0.00
2019-01-09T04:47:41.487Z,0.00
2019-01-09T04:48:47.045Z,0.00
2019-01-09T04:49:53.074Z,0.00
2019-01-09T04:50:59.120Z,0.00
2019-01-09T04:52:05.170Z,0.00
2019-01-09T04:53:11.203Z,0.00
2019-01-09T04:54:17.256Z,0.00
2019-01-09T04:55:23.292Z,0.00
2019-01-09T04:56:29.340Z,0.00
2019-01-09T04:57:35.391Z,0.00
2019-01-09T04:58:41.932Z,0.00
2019-01-09T04:59:47.486Z,0.00
2019-01-09T05:00:53.535Z,0.00
2019-01-09T05:02:00.358Z,0.00
2019-01-09T05:03:05.606Z,0.00
2019-01-09T05:04:12.149Z,0.00
2019-01-09T05:05:17.698Z,0.00
2019-01-09T05:06:23.731Z,0.00
2019-01-09T05:07:29.781Z,0.00
2019-01-09T05:08:35.830Z,0.00
2019-01-09T05:09:42.343Z,0.00
2019-01-09T05:10:47.906Z,0.00
2019-01-09T05:11:54.433Z,0.00
2019-01-09T05:12:59.976Z,0.00
2019-01-09T05:14:06.509Z,0.00
2019-01-09T05:15:12.071Z,0.00
2019-01-09T05:16:18.089Z,0.00
2019-01-09T05:17:24.138Z,0.00
2019-01-09T05:18:30.170Z,0.00
2019-01-09T05:19:36.211Z,0.00
2019-01-09T05:20:42.242Z,0.00
2019-01-09T05:21:48.281Z,0.00
2019-01-09T05:22:54.313Z,0.00
2019-01-09T05:24:00.360Z,0.00
2019-01-09T05:25:06.891Z,0.00
2019-01-09T05:26:12.424Z,0.00
2019-01-09T05:27:18.462Z,0.00
2019-01-09T05:28:24.495Z,0.00
2019-01-09T05:29:30.539Z,0.00
2019-01-09T05:30:36.719Z,0.00
2019-01-09T05:31:42.602Z,0.00
2019-01-09T05:32:48.648Z,0.00
2019-01-09T05:33:54.678Z,0.00
2019-01-09T05:35:00.694Z,0.00
2019-01-09T05:36:06.735Z,0.00
2019-01-09T05:37:12.768Z,0.00
2019-01-09T05:38:18.791Z,0.00
2019-01-09T05:39:24.825Z,0.00
2019-01-09T05:40:30.923Z,0.00
2019-01-09T05:41:36.901Z,0.00
2019-01-09T05:42:43.435Z,0.00
2019-01-09T05:43:48.972Z,0.00
2019-01-09T05:44:55.015Z,0.00
2019-01-09T05:46:01.039Z,0.00
2019-01-09T05:47:07.071Z,0.00
2019-01-09T05:48:13.122Z,0.00
2019-01-09T05:49:20.136Z,0.00
2019-01-09T05:50:25.179Z,0.00
2019-01-09T05:51:31.211Z,0.00
2019-01-09T05:52:37.257Z,0.00
2019-01-09T05:53:43.290Z,0.00
2019-01-09T05:54:49.815Z,0.00
2019-01-09T05:55:55.378Z,0.00
2019-01-09T05:57:01.396Z,0.00
2019-01-09T05:58:07.419Z,0.00
2019-01-09T05:59:13.594Z,0.00
2019-01-09T06:00:19.988Z,0.00
2019-01-09T06:01:25.559Z,0.00
2019-01-09T06:02:31.576Z,0.00
2019-01-09T06:03:37.608Z,0.00
2019-01-09T06:04:43.637Z,0.00
2019-01-09T06:05:49.688Z,0.00
2019-01-09T06:06:56.897Z,0.00
2019-01-09T06:08:01.896Z,0.00
2019-01-09T06:09:07.795Z,0.00
2019-01-09T06:10:13.845Z,0.00
2019-01-09T06:11:19.885Z,0.00
2019-01-09T06:12:25.917Z,0.00
2019-01-09T06:13:31.941Z,0.00
2019-01-09T06:14:38.002Z,0.00
2019-01-09T06:15:44.037Z,0.00
2019-01-09T06:16:50.083Z,0.00
2019-01-09T06:17:56.122Z,0.00
2019-01-09T06:19:02.149Z,0.00
2019-01-09T06:20:08.198Z,0.00
2019-01-09T06:21:14.246Z,0.00
2019-01-09T06:22:20.279Z,0.00
2019-01-09T06:23:26.327Z,0.00
2019-01-09T06:24:32.370Z,0.00
2019-01-09T06:25:38.420Z,0.00
2019-01-09T06:26:44.475Z,0.00
2019-01-09T06:27:50.497Z,0.00
2019-01-09T06:28:56.543Z,0.00
2019-01-09T06:30:02.585Z,0.00
2019-01-09T06:31:08.642Z,0.00
2019-01-09T06:32:15.176Z,0.00
2019-01-09T06:33:20.720Z,0.00
2019-01-09T06:34:26.771Z,0.00
2019-01-09T06:35:32.819Z,0.00
2019-01-09T06:36:38.865Z,0.00
2019-01-09T06:37:44.906Z,0.00
2019-01-09T06:38:50.954Z,0.00
2019-01-09T06:39:57.003Z,0.00
2019-01-09T06:41:03.052Z,0.00
2019-01-09T06:42:09.093Z,0.00
2019-01-09T06:43:15.133Z,0.00
2019-01-09T06:44:22.734Z,0.00
2019-01-09T06:45:27.210Z,0.00
2019-01-09T06:46:33.247Z,0.00
2019-01-09T06:47:39.287Z,0.00
2019-01-09T06:48:45.335Z,0.00
2019-01-09T06:49:51.367Z,4.00
2019-01-09T06:50:57.893Z,4.00
2019-01-09T06:52:03.609Z,4.00
2019-01-09T06:53:09.611Z,0.00
2019-01-09T06:54:15.505Z,4.00
2019-01-09T06:55:21.583Z,8.00
2019-01-09T06:56:27.583Z,8.00
2019-01-09T06:57:33.633Z,8.00
2019-01-09T06:58:39.671Z,8.00
2019-01-09T06:59:45.725Z,12.00
2019-01-09T07:00:51.746Z,12.00
2019-01-09T07:01:57.779Z,16.00
2019-01-09T07:04:18.113Z,24.00
2019-01-09T07:05:24.150Z,24.00
2019-01-09T07:06:30.730Z,32.00
2019-01-09T07:07:36.425Z,32.00
2019-01-09T07:08:42.259Z,32.00
2019-01-09T07:09:48.310Z,40.00
2019-01-09T07:10:54.333Z,52.00
2019-01-09T07:12:00.387Z,60.00
2019-01-09T07:13:06.422Z,72.00
2019-01-09T07:14:12.461Z,76.00
2019-01-09T07:15:18.498Z,88.00
2019-01-09T07:16:24.535Z,104.00
2019-01-09T07:17:30.580Z,124.00
2019-01-09T07:18:36.621Z,140.00
2019-01-09T07:19:42.663Z,148.00
2019-01-09T07:20:48.709Z,160.00
2019-01-09T07:21:54.750Z,176.00
2019-01-09T07:23:00.791Z,200.00
2019-01-09T07:24:06.830Z,220.00
2019-01-09T07:25:13.111Z,236.00
2019-01-09T07:26:18.927Z,264.00
2019-01-09T07:27:24.967Z,276.00
2019-01-09T07:28:31.019Z,304.00
2019-01-09T07:29:38.537Z,328.00
2019-01-09T07:30:43.099Z,340.00
2019-01-09T07:31:49.138Z,368.00
2019-01-09T07:32:55.197Z,388.00
2019-01-09T07:34:01.223Z,416.00
2019-01-09T07:35:07.272Z,432.00
2019-01-09T07:36:13.319Z,448.00
2019-01-09T07:37:19.352Z,492.00
2019-01-09T07:38:25.399Z,500.00
2019-01-09T07:39:31.450Z,516.00
2019-01-09T07:40:37.485Z,528.00
2019-01-09T07:41:43.535Z,556.00
2019-01-09T07:42:49.566Z,584.00
2019-01-09T07:43:55.619Z,616.00
2019-01-09T07:45:01.654Z,640.00
2019-01-09T07:46:07.704Z,644.00
2019-01-09T07:47:13.749Z,692.00
2019-01-09T07:48:19.778Z,732.00
2019-01-09T07:49:25.834Z,764.00
2019-01-09T07:50:31.873Z,800.00
2019-01-09T07:51:37.922Z,848.00
2019-01-09T07:52:43.971Z,872.00
2019-01-09T07:53:51.289Z,936.00
2019-01-09T07:54:56.067Z,992.00
2019-01-09T07:56:03.601Z,1044.00
2019-01-09T07:57:08.168Z,1068.00
2019-01-09T07:58:15.218Z,1104.00
2019-01-09T07:59:21.270Z,1164.00
2019-01-09T08:00:26.340Z,1216.00
2019-01-09T08:01:32.377Z,1228.00
2019-01-09T08:02:38.432Z,1308.00
2019-01-09T08:03:44.483Z,1332.00
2019-01-09T08:04:50.538Z,1480.00
2019-01-09T08:05:57.084Z,1552.00
2019-01-09T08:07:03.128Z,1604.00
2019-01-09T08:08:08.696Z,1744.00
2019-01-09T08:09:14.748Z,1892.00
2019-01-09T08:10:20.809Z,1968.00
2019-01-09T08:11:26.867Z,2112.00
2019-01-09T08:12:32.935Z,2280.00
2019-01-09T08:13:38.991Z,2488.00
2019-01-09T08:14:45.039Z,2660.00
2019-01-09T08:15:51.101Z,2860.00
2019-01-09T08:16:57.157Z,3100.00
2019-01-09T08:18:03.716Z,3184.00
2019-01-09T08:19:09.291Z,3368.00
2019-01-09T08:20:15.855Z,3460.00
2019-01-09T08:21:21.901Z,3604.00
2019-01-09T08:22:27.477Z,3788.00
2019-01-09T08:23:33.545Z,3900.00
2019-01-09T08:24:39.607Z,3976.00
2019-01-09T08:25:45.679Z,4064.00
2019-01-09T08:26:51.745Z,4140.00
2019-01-09T08:27:57.819Z,4212.00
2019-01-09T08:29:03.910Z,4260.00
2019-01-09T08:30:09.955Z,4296.00
2019-01-09T08:31:16.026Z,4300.00
2019-01-09T08:32:22.101Z,4344.00
2019-01-09T08:33:28.678Z,4384.00
2019-01-09T08:34:34.773Z,4440.00
2019-01-09T08:35:40.322Z,4476.00
2019-01-09T08:36:46.399Z,4500.00
2019-01-09T08:37:52.491Z,4520.00
2019-01-09T08:38:58.624Z,4540.00
2019-01-09T08:40:04.643Z,4540.00
2019-01-09T08:41:10.711Z,4524.00
2019-01-09T08:42:16.781Z,4524.00
2019-01-09T08:43:22.856Z,4552.00
2019-01-09T08:44:29.457Z,4588.00
2019-01-09T08:45:35.021Z,4632.00
2019-01-09T08:46:42.647Z,4680.00
2019-01-09T08:47:47.665Z,4736.00
2019-01-09T08:48:53.265Z,4816.00
2019-01-09T08:49:59.833Z,5000.00
2019-01-09T08:51:05.430Z,5304.00
2019-01-09T08:52:11.515Z,5464.00
2019-01-09T08:53:18.579Z,5472.00
2019-01-09T08:54:24.148Z,5624.00
2019-01-09T08:55:29.943Z,5568.00
2019-01-09T08:56:37.323Z,5560.00
2019-01-09T08:57:41.910Z,5568.00
2019-01-09T08:58:48.005Z,5544.00
2019-01-09T08:59:54.090Z,5604.00
2019-01-09T09:01:00.166Z,5612.00
2019-01-09T09:02:06.253Z,5524.00
2019-01-09T09:03:12.346Z,5380.00
2019-01-09T09:04:18.921Z,5444.00
2019-01-09T09:06:31.107Z,5404.00
2019-01-09T09:07:36.701Z,5364.00
2019-01-09T09:08:42.794Z,5160.00
2019-01-09T09:09:49.367Z,5064.00
2019-01-09T09:10:55.590Z,5200.00
2019-01-09T09:12:01.066Z,5068.00
2019-01-09T09:13:07.159Z,4996.00
2019-01-09T09:14:13.247Z,5020.00
2019-01-09T09:15:19.341Z,5084.00
2019-01-09T09:16:25.434Z,4796.00
2019-01-09T09:17:31.530Z,4276.00
2019-01-09T09:18:38.146Z,4128.00
2019-01-09T09:19:43.724Z,3744.00
2019-01-09T09:20:50.316Z,3352.00
2019-01-09T09:21:55.893Z,3656.00
2019-01-09T09:23:02.001Z,3848.00
2019-01-09T09:24:08.093Z,4152.00
2019-01-09T09:25:14.683Z,4392.00
2019-01-09T09:26:20.277Z,5352.00
2019-01-09T09:27:26.865Z,6000.00
2019-01-09T09:28:32.983Z,6300.00
2019-01-09T09:29:38.556Z,6556.00
2019-01-09T09:30:44.679Z,6504.00
2019-01-09T09:31:50.763Z,7152.00
2019-01-09T09:32:57.362Z,7332.00
2019-01-09T09:34:02.957Z,7824.00
2019-01-09T09:35:09.603Z,7908.00
2019-01-09T09:36:15.172Z,7828.00
2019-01-09T09:37:21.274Z,8000.00
2019-01-09T09:38:27.398Z,7852.00
2019-01-09T09:39:33.490Z,8108.00
2019-01-09T09:40:40.123Z,7600.00
2019-01-09T09:41:46.206Z,6992.00
2019-01-09T09:42:51.845Z,6744.00
2019-01-09T09:43:58.461Z,6380.00
2019-01-09T09:45:04.068Z,6584.00
2019-01-09T09:46:10.626Z,7112.00
2019-01-09T09:47:16.778Z,7848.00
2019-01-09T09:48:22.401Z,7940.00
2019-01-09T09:49:28.514Z,7488.00
2019-01-09T09:50:34.626Z,6972.00
2019-01-09T09:51:40.825Z,6780.00
2019-01-09T09:52:47.309Z,6512.00
2019-01-09T09:53:52.962Z,5616.00
2019-01-09T09:54:59.076Z,4968.00
2019-01-09T09:56:05.191Z,6056.00
2019-01-09T09:57:11.329Z,6620.00
2019-01-09T09:58:17.920Z,6432.00
2019-01-09T09:59:23.531Z,5540.00
2019-01-09T10:00:30.142Z,6048.00
2019-01-09T10:01:35.763Z,6252.00
2019-01-09T10:02:41.866Z,6724.00
2019-01-09T10:03:48.984Z,6512.00
2019-01-09T10:04:54.113Z,6668.00
2019-01-09T10:06:00.211Z,7400.00
2019-01-09T10:07:06.325Z,8648.00
2019-01-09T10:08:12.454Z,8556.00
2019-01-09T10:09:18.554Z,8308.00
2019-01-09T10:10:25.185Z,10020.00
2019-01-09T10:11:30.800Z,10636.00
2019-01-09T10:12:36.918Z,8960.00
2019-01-09T10:13:43.048Z,8504.00
2019-01-09T10:14:49.663Z,8676.00
2019-01-09T10:15:55.301Z,8556.00
2019-01-09T10:17:01.912Z,9076.00
2019-01-09T10:18:08.047Z,8488.00
2019-01-09T10:19:13.679Z,6964.00
2019-01-09T10:20:20.308Z,7320.00
2019-01-09T10:21:25.935Z,6808.00
2019-01-09T10:22:32.062Z,5664.00
2019-01-09T10:23:39.192Z,4612.00
2019-01-09T10:24:44.814Z,5052.00
2019-01-09T10:25:50.600Z,5260.00
2019-01-09T10:26:56.563Z,5872.00
2019-01-09T10:28:02.673Z,6180.00
2019-01-09T10:29:08.786Z,6444.00
2019-01-09T10:30:14.906Z,7268.00
2019-01-09T10:31:21.599Z,6196.00
2019-01-09T10:32:27.635Z,5488.00
2019-01-09T10:33:33.753Z,5696.00
2019-01-09T10:34:39.368Z,5928.00
2019-01-09T10:35:45.962Z,6140.00
2019-01-09T10:36:52.079Z,6584.00
2019-01-09T10:37:58.201Z,7080.00
2019-01-09T10:39:04.316Z,8164.00
2019-01-09T10:40:10.460Z,8228.00
2019-01-09T10:41:16.073Z,7708.00
2019-01-09T10:42:22.165Z,7676.00
2019-01-09T10:43:28.296Z,7928.00
2019-01-09T10:44:34.924Z,9468.00
2019-01-09T10:45:41.033Z,10984.00
2019-01-09T10:46:46.694Z,11084.00
2019-01-09T10:47:53.310Z,11236.00
2019-01-09T10:48:58.938Z,12212.00
2019-01-09T10:50:05.079Z,12976.00
2019-01-09T10:51:11.214Z,11816.00
2019-01-09T10:52:17.871Z,10104.00
2019-01-09T10:53:23.518Z,10288.00
2019-01-09T10:54:29.699Z,9608.00
2019-01-09T10:55:35.815Z,7852.00
2019-01-09T10:56:41.995Z,6820.00
2019-01-09T10:57:48.109Z,6904.00
2019-01-09T10:58:54.256Z,6520.00
2019-01-09T11:00:00.883Z,6848.00
2019-01-09T11:01:06.556Z,6356.00
2019-01-09T11:02:12.682Z,5568.00
2019-01-09T11:03:19.812Z,5272.00
2019-01-09T11:04:24.939Z,5276.00
2019-01-09T11:05:31.079Z,5592.00
2019-01-09T11:06:37.673Z,5960.00
2019-01-09T11:07:43.337Z,6220.00
2019-01-09T11:08:49.465Z,6404.00
2019-01-09T11:09:55.579Z,7312.00
2019-01-09T11:11:01.710Z,9180.00
2019-01-09T11:12:08.338Z,11700.00
2019-01-09T11:13:14.468Z,9476.00
2019-01-09T11:14:20.098Z,7616.00
2019-01-09T11:15:26.221Z,8300.00
2019-01-09T11:16:32.352Z,9512.00
2019-01-09T11:17:38.491Z,10560.00
2019-01-09T11:18:44.626Z,11592.00
2019-01-09T11:19:50.774Z,10328.00
2019-01-09T11:20:56.914Z,9236.00
2019-01-09T11:22:03.061Z,10048.00
2019-01-09T11:23:09.237Z,9604.00
2019-01-09T11:24:15.353Z,9652.00
2019-01-09T11:25:21.492Z,10796.00
2019-01-09T11:26:27.637Z,12976.00
2019-01-09T11:27:34.282Z,14848.00
2019-01-09T11:28:39.959Z,13180.00
2019-01-09T11:29:46.602Z,12816.00
2019-01-09T11:30:52.275Z,10272.00
2019-01-09T11:31:58.444Z,8732.00
2019-01-09T11:33:04.603Z,7760.00
2019-01-09T11:34:10.764Z,6240.00
2019-01-09T11:35:16.927Z,5644.00
2019-01-09T11:36:23.103Z,4656.00
2019-01-09T11:37:29.226Z,4536.00
2019-01-09T11:38:35.378Z,4392.00
2019-01-09T11:39:41.513Z,5000.00
2019-01-09T11:40:48.154Z,5140.00
2019-01-09T11:41:54.803Z,4680.00
2019-01-09T11:42:59.949Z,4688.00
2019-01-09T11:44:06.579Z,4672.00
2019-01-09T11:45:12.227Z,4684.00
2019-01-09T11:46:18.332Z,4656.00
2019-01-09T11:47:24.508Z,4420.00
2019-01-09T11:48:30.607Z,4300.00
2019-01-09T11:49:37.239Z,4216.00
2019-01-09T11:50:43.365Z,4524.00
2019-01-09T11:51:48.990Z,5344.00
2019-01-09T11:52:55.117Z,5692.00
2019-01-09T11:54:01.757Z,5352.00
2019-01-09T11:55:07.853Z,5772.00
2019-01-09T11:56:13.493Z,5624.00
2019-01-09T11:57:19.622Z,5620.00
2019-01-09T11:58:25.739Z,5872.00
2019-01-09T11:59:31.859Z,6696.00
2019-01-09T12:00:37.995Z,7144.00
2019-01-09T12:01:44.118Z,7392.00
2019-01-09T12:02:50.255Z,7524.00
2019-01-09T12:03:56.368Z,8308.00
2019-01-09T12:05:02.505Z,7976.00
2019-01-09T12:06:08.637Z,8160.00
2019-01-09T12:07:14.769Z,8824.00
2019-01-09T12:08:20.896Z,9268.00
2019-01-09T12:09:27.025Z,8148.00
2019-01-09T12:10:33.152Z,6864.00
2019-01-09T12:11:39.304Z,6656.00
2019-01-09T12:12:45.438Z,7012.00
2019-01-09T12:13:53.291Z,6924.00
2019-01-09T12:14:57.732Z,7396.00
2019-01-09T12:16:08.169Z,7904.00
2019-01-09T12:17:09.958Z,8668.00
2019-01-09T12:18:16.131Z,8640.00
2019-01-09T12:19:22.239Z,7752.00
2019-01-09T12:20:28.373Z,7512.00
2019-01-09T12:21:34.497Z,7252.00
2019-01-09T12:22:40.639Z,7512.00
2019-01-09T12:23:46.761Z,7468.00
2019-01-09T12:24:52.896Z,7616.00
2019-01-09T12:25:59.043Z,7312.00
2019-01-09T12:27:05.218Z,7028.00
2019-01-09T12:28:11.309Z,6512.00
2019-01-09T12:29:17.926Z,6812.00
2019-01-09T12:30:23.567Z,7232.00
2019-01-09T12:31:29.716Z,6824.00
2019-01-09T12:32:36.796Z,6120.00
2019-01-09T12:33:41.971Z,4676.00
2019-01-09T12:34:48.591Z,4304.00
2019-01-09T12:35:54.260Z,3876.00
2019-01-09T12:37:00.370Z,3432.00
2019-01-09T12:38:06.479Z,3508.00
2019-01-09T12:39:13.571Z,3636.00
2019-01-09T12:40:18.724Z,3584.00
2019-01-09T12:41:24.850Z,3736.00
2019-01-09T12:42:30.960Z,4232.00
2019-01-09T12:43:37.074Z,4560.00
2019-01-09T12:44:44.680Z,4652.00
2019-01-09T12:45:49.317Z,4780.00
2019-01-09T12:46:55.423Z,5300.00
2019-01-09T12:48:01.545Z,5788.00
2019-01-09T12:49:08.134Z,6680.00
2019-01-09T12:50:14.259Z,8408.00
2019-01-09T12:51:19.875Z,10176.00
2019-01-09T12:52:26.005Z,10348.00
2019-01-09T12:53:33.965Z,9756.00
2019-01-09T12:54:38.566Z,9336.00
2019-01-09T12:55:44.383Z,9340.00
2019-01-09T12:56:50.520Z,8876.00
2019-01-09T12:57:56.631Z,8484.00
2019-01-09T12:59:02.779Z,7380.00
2019-01-09T13:00:09.401Z,5944.00
2019-01-09T13:01:15.029Z,4968.00
2019-01-09T13:02:21.161Z,4956.00
2019-01-09T13:03:27.876Z,4976.00
2019-01-09T13:04:33.419Z,4644.00
2019-01-09T13:05:39.552Z,4248.00
2019-01-09T13:06:46.148Z,4004.00
2019-01-09T13:07:51.790Z,3580.00
2019-01-09T13:08:57.911Z,3124.00
2019-01-09T13:10:04.028Z,2780.00
2019-01-09T13:11:10.137Z,2596.00
2019-01-09T13:12:16.747Z,2388.00
2019-01-09T13:13:22.376Z,1812.00
2019-01-09T13:14:28.469Z,1740.00
2019-01-09T13:15:34.577Z,2004.00
2019-01-09T13:16:47.746Z,2320.00
2019-01-09T13:17:46.777Z,2688.00
2019-01-09T13:18:52.885Z,3152.00
2019-01-09T13:19:58.979Z,3492.00
2019-01-09T13:21:05.077Z,3560.00
2019-01-09T13:22:11.190Z,3476.00
2019-01-09T13:23:17.288Z,3312.00
2019-01-09T13:24:23.387Z,3160.00
2019-01-09T13:25:29.486Z,3104.00
2019-01-09T13:26:35.586Z,3092.00
2019-01-09T13:27:41.691Z,3052.00
2019-01-09T13:28:47.790Z,2808.00
2019-01-09T13:29:53.890Z,2580.00
2019-01-09T13:31:00.022Z,2632.00
2019-01-09T13:32:06.088Z,2576.00
2019-01-09T13:33:12.190Z,2456.00
2019-01-09T13:34:18.780Z,2292.00
2019-01-09T13:35:24.895Z,2168.00
2019-01-09T13:36:30.482Z,2096.00
2019-01-09T13:37:36.579Z,1924.00
2019-01-09T13:38:42.667Z,1688.00
2019-01-09T13:39:48.757Z,1560.00
2019-01-09T13:40:54.855Z,1496.00
2019-01-09T13:42:00.944Z,1332.00
2019-01-09T13:43:07.037Z,1256.00
2019-01-09T13:44:13.131Z,1316.00
2019-01-09T13:45:19.209Z,1332.00
2019-01-09T13:46:25.293Z,1508.00
2019-01-09T13:47:31.393Z,1648.00
2019-01-09T13:48:37.483Z,1784.00
2019-01-09T13:49:44.549Z,1972.00
2019-01-09T13:50:49.638Z,2328.00
2019-01-09T13:51:55.732Z,2600.00
2019-01-09T13:53:01.896Z,2784.00
2019-01-09T13:54:07.931Z,3016.00
2019-01-09T13:55:13.991Z,3324.00
2019-01-09T13:56:20.089Z,3844.00
2019-01-09T13:57:26.622Z,4524.00
2019-01-09T13:58:32.269Z,4900.00
2019-01-09T13:59:38.377Z,5012.00
2019-01-09T14:00:44.452Z,4816.00
2019-01-09T14:01:50.581Z,4836.00
2019-01-09T14:02:56.633Z,5044.00